createdAt,value
2019-05-14T00:00:21.723Z,6.89
2019-05-14T00:01:22.169Z,6.91
2019-05-14T00:02:21.789Z,6.76
2019-05-14T00:03:21.932Z,6.76
2019-05-14T00:04:22.129Z,6.64
2019-05-14T00:05:22.289Z,6.69
2019-05-14T00:06:21.927Z,6.71
2019-05-14T00:07:22.572Z,6.69
2019-05-14T00:08:22.710Z,6.63
2019-05-14T00:09:21.962Z,6.65
2019-05-14T00:10:22.131Z,6.55
2019-05-14T00:11:22.323Z,6.65
2019-05-14T00:12:22.534Z,6.61
2019-05-14T00:13:22.698Z,6.54
2019-05-14T00:14:35.686Z,6.65
2019-05-14T00:15:24.003Z,6.64
2019-05-14T00:16:24.325Z,6.68
2019-05-14T00:17:24.281Z,6.50
2019-05-14T00:18:23.413Z,6.57
2019-05-14T00:19:23.582Z,6.54
2019-05-14T00:20:23.777Z,6.46
2019-05-14T00:21:23.915Z,6.57
2019-05-14T00:22:24.087Z,6.54
2019-05-14T00:23:24.266Z,6.40
2019-05-14T00:24:24.422Z,6.45
2019-05-14T00:25:24.594Z,6.36
2019-05-14T00:26:24.741Z,6.25
2019-05-14T00:27:24.913Z,6.36
2019-05-14T00:28:25.699Z,6.40
2019-05-14T00:29:25.715Z,6.20
2019-05-14T00:30:25.348Z,6.38
2019-05-14T00:31:25.718Z,6.21
2019-05-14T00:32:25.786Z,6.36
2019-05-14T00:33:25.934Z,6.32
2019-05-14T00:34:26.091Z,6.25
2019-05-14T00:35:27.223Z,6.24
2019-05-14T00:36:26.454Z,6.24
2019-05-14T00:37:26.658Z,6.20
2019-05-14T00:38:26.799Z,6.20
2019-05-14T00:39:26.955Z,6.05
2019-05-14T00:40:27.718Z,6.06
2019-05-14T00:41:27.333Z,6.10
2019-05-14T00:42:27.492Z,6.08
2019-05-14T00:43:27.650Z,5.95
2019-05-14T00:44:27.813Z,6.08
2019-05-14T00:45:27.941Z,6.01
2019-05-14T00:46:28.090Z,6.01
2019-05-14T00:47:28.267Z,6.01
2019-05-14T00:48:28.425Z,5.88
2019-05-14T00:49:28.546Z,5.93
2019-05-14T00:50:31.525Z,5.90
2019-05-14T00:51:28.851Z,6.05
2019-05-14T00:52:31.363Z,5.90
2019-05-14T00:53:31.819Z,5.90
2019-05-14T00:54:29.447Z,5.83
2019-05-14T00:55:31.539Z,6.05
2019-05-14T00:56:31.991Z,5.99
2019-05-14T00:57:31.659Z,5.96
2019-05-14T00:58:31.018Z,5.93
2019-05-14T00:59:32.203Z,5.84
2019-05-14T01:00:52.721Z,5.90
2019-05-14T01:01:31.822Z,5.80
2019-05-14T01:02:31.974Z,5.77
2019-05-14T01:03:32.559Z,5.74
2019-05-14T01:04:32.162Z,5.75
2019-05-14T01:05:32.187Z,5.81
2019-05-14T01:06:32.499Z,5.74
2019-05-14T01:07:52.735Z,5.73
2019-05-14T01:08:32.229Z,5.81
2019-05-14T01:09:32.116Z,5.73
2019-05-14T01:10:32.270Z,5.70
2019-05-14T01:11:32.432Z,5.74
2019-05-14T01:12:32.598Z,5.69
2019-05-14T01:13:32.773Z,5.70
2019-05-14T01:14:33.696Z,5.66
2019-05-14T01:15:33.100Z,5.56
2019-05-14T01:16:34.227Z,5.60
2019-05-14T01:17:34.204Z,5.73
2019-05-14T01:18:33.639Z,5.63
2019-05-14T01:19:33.837Z,5.51
2019-05-14T01:20:34.009Z,5.56
2019-05-14T01:21:34.182Z,5.63
2019-05-14T01:22:34.357Z,5.95
2019-05-14T01:23:34.557Z,6.06
2019-05-14T01:24:34.698Z,5.81
2019-05-14T01:25:34.857Z,5.69
2019-05-14T01:26:35.032Z,5.66
2019-05-14T01:27:35.196Z,5.55
2019-05-14T01:28:35.347Z,5.78
2019-05-14T01:29:35.531Z,5.90
2019-05-14T01:30:35.678Z,5.78
2019-05-14T01:31:35.817Z,5.73
2019-05-14T01:32:35.950Z,5.56
2019-05-14T01:33:36.087Z,5.48
2019-05-14T01:34:36.721Z,5.62
2019-05-14T01:35:37.210Z,5.70
2019-05-14T01:36:36.728Z,5.65
2019-05-14T01:37:36.887Z,5.58
2019-05-14T01:38:37.055Z,5.56
2019-05-14T01:39:37.207Z,5.49
2019-05-14T01:40:37.373Z,5.49
2019-05-14T01:41:37.546Z,5.40
2019-05-14T01:42:37.700Z,5.45
2019-05-14T01:43:37.854Z,5.37
2019-05-14T01:44:38.041Z,5.52
2019-05-14T01:45:38.191Z,5.67
2019-05-14T01:46:38.725Z,5.60
2019-05-14T01:47:38.512Z,5.42
2019-05-14T01:48:38.687Z,5.42
2019-05-14T01:49:42.500Z,5.40
2019-05-14T01:50:41.235Z,5.32
2019-05-14T01:51:39.279Z,5.32
2019-05-14T01:52:41.618Z,5.15
2019-05-14T01:53:41.734Z,5.22
2019-05-14T01:54:42.758Z,5.11
2019-05-14T01:55:41.465Z,5.11
2019-05-14T01:56:42.336Z,4.93
2019-05-14T01:57:42.518Z,4.84
2019-05-14T01:58:41.831Z,4.79
2019-05-14T01:59:42.859Z,4.87
2019-05-14T02:00:41.917Z,4.84
2019-05-14T02:01:41.597Z,4.84
2019-05-14T02:02:42.304Z,5.08
2019-05-14T02:03:41.531Z,4.99
2019-05-14T02:04:42.689Z,4.83
2019-05-14T02:05:42.839Z,4.79
2019-05-14T02:06:42.095Z,4.77
2019-05-14T02:07:42.282Z,4.65
2019-05-14T02:08:42.424Z,4.74
2019-05-14T02:09:42.558Z,4.62
2019-05-14T02:10:42.679Z,4.74
2019-05-14T02:11:43.718Z,4.99
2019-05-14T02:12:43.095Z,4.91
2019-05-14T02:13:43.233Z,4.83
2019-05-14T02:14:43.337Z,4.77
2019-05-14T02:15:44.469Z,4.83
2019-05-14T02:16:43.691Z,4.86
2019-05-14T02:17:43.838Z,4.75
2019-05-14T02:18:43.967Z,4.72
2019-05-14T02:19:44.204Z,4.84
2019-05-14T02:20:44.321Z,5.01
2019-05-14T02:21:44.492Z,4.96
2019-05-14T02:22:44.731Z,4.80
2019-05-14T02:23:44.764Z,4.84
2019-05-14T02:24:44.896Z,4.79
2019-05-14T02:25:45.044Z,4.77
2019-05-14T02:26:45.716Z,4.77
2019-05-14T02:27:45.349Z,4.74
2019-05-14T02:28:45.542Z,4.72
2019-05-14T02:29:45.701Z,4.75
2019-05-14T02:30:55.926Z,4.75
2019-05-14T02:31:50.401Z,4.88
2019-05-14T02:32:49.738Z,5.04
2019-05-14T02:33:50.387Z,5.22
2019-05-14T02:34:50.012Z,5.17
2019-05-14T02:35:49.404Z,5.02
2019-05-14T02:36:49.646Z,5.08
2019-05-14T02:37:50.497Z,4.99
2019-05-14T02:38:49.581Z,4.99
2019-05-14T02:39:50.259Z,4.96
2019-05-14T02:40:49.592Z,4.87
2019-05-14T02:41:49.862Z,4.86
2019-05-14T02:42:49.771Z,4.80
2019-05-14T02:43:50.325Z,5.02
2019-05-14T02:44:49.499Z,4.94
2019-05-14T02:46:03.371Z,5.06
2019-05-14T02:46:50.678Z,4.91
2019-05-14T02:47:50.537Z,4.84
2019-05-14T02:48:49.999Z,4.72
2019-05-14T02:49:50.208Z,4.86
2019-05-14T02:50:50.266Z,5.04
2019-05-14T02:51:50.390Z,5.48
2019-05-14T02:52:50.573Z,5.60
2019-05-14T02:54:10.807Z,5.74
2019-05-14T02:54:51.059Z,5.78
2019-05-14T02:55:50.202Z,5.83
2019-05-14T02:56:50.370Z,5.58
2019-05-14T02:57:50.550Z,5.59
2019-05-14T02:58:50.684Z,5.29
2019-05-14T02:59:51.224Z,5.26
2019-05-14T03:00:50.982Z,5.08
2019-05-14T03:01:51.146Z,4.97
2019-05-14T03:02:52.226Z,4.99
2019-05-14T03:03:51.491Z,5.09
2019-05-14T03:04:51.691Z,5.02
2019-05-14T03:05:51.857Z,4.96
2019-05-14T03:06:52.720Z,5.11
2019-05-14T03:07:52.221Z,5.08
2019-05-14T03:08:52.405Z,5.11
2019-05-14T03:09:52.591Z,5.30
2019-05-14T03:10:53.723Z,5.17
2019-05-14T03:11:52.904Z,5.35
2019-05-14T03:12:53.049Z,5.26
2019-05-14T03:13:53.200Z,5.19
2019-05-14T03:14:53.366Z,4.94
2019-05-14T03:15:53.549Z,5.08
2019-05-14T03:16:53.693Z,5.11
2019-05-14T03:17:53.850Z,5.19
2019-05-14T03:18:54.005Z,5.59
2019-05-14T03:19:54.176Z,6.10
2019-05-14T03:20:54.740Z,6.02
2019-05-14T03:21:54.486Z,6.13
2019-05-14T03:23:02.978Z,6.55
2019-05-14T03:24:00.696Z,6.48
2019-05-14T03:24:54.975Z,6.48
2019-05-14T03:25:55.180Z,6.38
2019-05-14T03:26:55.353Z,5.92
2019-05-14T03:27:55.506Z,6.01
2019-05-14T03:28:55.657Z,6.01
2019-05-14T03:29:58.491Z,6.03
2019-05-14T03:31:01.966Z,5.95
2019-05-14T03:32:02.103Z,5.78
2019-05-14T03:33:02.926Z,5.69
2019-05-14T03:34:02.873Z,5.56
2019-05-14T03:35:03.946Z,5.67
2019-05-14T03:36:08.133Z,5.59
2019-05-14T03:37:03.443Z,5.41
2019-05-14T03:38:00.400Z,5.38
2019-05-14T03:38:59.358Z,5.37
2019-05-14T03:39:59.465Z,5.27
2019-05-14T03:41:00.184Z,5.22
2019-05-14T03:41:59.256Z,5.20
2019-05-14T03:42:59.784Z,5.29
2019-05-14T03:44:00.163Z,5.58
2019-05-14T03:44:59.905Z,5.81
2019-05-14T03:45:59.794Z,6.03
2019-05-14T03:47:04.688Z,6.20
2019-05-14T03:48:01.206Z,6.48
2019-05-14T03:49:00.075Z,6.55
2019-05-14T03:50:00.495Z,6.71
2019-05-14T03:51:00.459Z,6.57
2019-05-14T03:52:00.859Z,6.32
2019-05-14T03:53:00.162Z,6.03
2019-05-14T03:54:06.680Z,6.08
2019-05-14T03:55:04.727Z,6.25
2019-05-14T03:56:01.679Z,6.21
2019-05-14T03:57:00.976Z,6.43
2019-05-14T03:58:01.153Z,6.36
2019-05-14T03:59:01.393Z,5.96
2019-05-14T04:00:01.560Z,5.78
2019-05-14T04:01:01.720Z,5.63
2019-05-14T04:02:01.854Z,5.65
2019-05-14T04:03:02.022Z,5.69
2019-05-14T04:04:02.220Z,5.63
2019-05-14T04:05:02.379Z,5.74
2019-05-14T04:06:02.577Z,5.93
2019-05-14T04:07:02.741Z,6.13
2019-05-14T04:08:02.902Z,6.14
2019-05-14T04:09:03.241Z,6.13
2019-05-14T04:10:03.257Z,6.24
2019-05-14T04:11:04.232Z,5.96
2019-05-14T04:12:04.243Z,5.75
2019-05-14T04:13:03.745Z,5.63
2019-05-14T04:14:03.932Z,5.63
2019-05-14T04:15:04.078Z,5.55
2019-05-14T04:16:04.212Z,5.87
2019-05-14T04:17:09.747Z,5.87
2019-05-14T04:18:09.043Z,5.78
2019-05-14T04:19:04.791Z,6.05
2019-05-14T04:20:04.975Z,6.25
2019-05-14T04:21:05.149Z,6.28
2019-05-14T04:22:05.312Z,6.39
2019-05-14T04:23:05.480Z,6.24
2019-05-14T04:24:05.609Z,6.02
2019-05-14T04:25:05.821Z,5.84
2019-05-14T04:26:09.147Z,6.01
2019-05-14T04:27:11.636Z,5.93
2019-05-14T04:28:09.840Z,5.84
2019-05-14T04:29:10.163Z,5.78
2019-05-14T04:30:09.490Z,5.73
2019-05-14T04:31:09.813Z,5.70
2019-05-14T04:32:09.476Z,5.75
2019-05-14T04:33:10.648Z,5.66
2019-05-14T04:34:10.755Z,5.77
2019-05-14T04:35:09.593Z,5.75
2019-05-14T04:36:09.936Z,5.84
2019-05-14T04:37:09.794Z,5.92
2019-05-14T04:38:09.703Z,6.38
2019-05-14T04:39:09.752Z,6.78
2019-05-14T04:40:10.321Z,6.97
2019-05-14T04:41:10.558Z,6.73
2019-05-14T04:42:10.006Z,6.57
2019-05-14T04:43:10.239Z,6.20
2019-05-14T04:44:10.161Z,6.14
2019-05-14T04:45:11.090Z,6.13
2019-05-14T04:46:10.970Z,6.13
2019-05-14T04:47:22.897Z,6.10
2019-05-14T04:48:27.200Z,6.10
2019-05-14T04:49:12.060Z,6.48
2019-05-14T04:50:11.057Z,6.73
2019-05-14T04:51:10.506Z,6.75
2019-05-14T04:52:11.223Z,6.83
2019-05-14T04:53:10.846Z,6.86
2019-05-14T04:54:11.006Z,6.69
2019-05-14T04:55:11.169Z,6.54
2019-05-14T04:56:11.350Z,6.38
2019-05-14T04:57:11.501Z,6.35
2019-05-14T04:58:11.664Z,6.32
2019-05-14T04:59:11.815Z,6.36
2019-05-14T05:00:12.705Z,6.36
2019-05-14T05:01:13.146Z,6.38
2019-05-14T05:02:12.303Z,6.21
2019-05-14T05:03:13.005Z,6.36
2019-05-14T05:04:13.673Z,6.33
2019-05-14T05:05:12.788Z,6.38
2019-05-14T05:06:12.957Z,6.68
2019-05-14T05:07:13.132Z,7.14
2019-05-14T05:08:14.370Z,7.55
2019-05-14T05:09:14.535Z,7.62
2019-05-14T05:10:13.768Z,7.34
2019-05-14T05:11:13.932Z,7.47
2019-05-14T05:12:14.070Z,7.33
2019-05-14T05:13:14.211Z,7.26
2019-05-14T05:14:14.352Z,6.94
2019-05-14T05:15:14.500Z,6.69
2019-05-14T05:16:14.657Z,6.64
2019-05-14T05:17:14.796Z,6.61
2019-05-14T05:18:14.952Z,6.54
2019-05-14T05:19:15.104Z,6.63
2019-05-14T05:20:18.986Z,6.78
2019-05-14T05:21:15.476Z,6.81
2019-05-14T05:22:15.640Z,6.63
2019-05-14T05:23:18.837Z,6.43
2019-05-14T05:24:18.278Z,6.39
2019-05-14T05:25:16.168Z,6.42
2019-05-14T05:26:18.418Z,6.48
2019-05-14T05:27:18.501Z,6.60
2019-05-14T05:28:19.050Z,6.43
2019-05-14T05:29:18.584Z,6.50
2019-05-14T05:30:19.029Z,6.50
2019-05-14T05:31:18.648Z,6.63
2019-05-14T05:32:19.498Z,6.68
2019-05-14T05:33:18.830Z,6.57
2019-05-14T05:34:19.377Z,6.55
2019-05-14T05:35:19.011Z,6.36
2019-05-14T05:36:18.588Z,6.30
2019-05-14T05:37:19.447Z,6.42
2019-05-14T05:38:18.619Z,6.46
2019-05-14T05:39:19.058Z,6.53
2019-05-14T05:40:19.996Z,6.55
2019-05-14T05:41:19.440Z,6.58
2019-05-14T05:42:19.478Z,6.48
2019-05-14T05:43:19.651Z,6.36
2019-05-14T05:44:19.766Z,6.53
2019-05-14T05:45:19.927Z,6.38
2019-05-14T05:46:20.726Z,6.48
2019-05-14T05:47:20.335Z,6.55
2019-05-14T05:48:21.226Z,6.64
2019-05-14T05:49:20.733Z,6.48
2019-05-14T05:50:20.906Z,6.57
2019-05-14T05:51:21.025Z,6.65
2019-05-14T05:52:21.159Z,6.87
2019-05-14T05:53:21.287Z,6.97
2019-05-14T05:54:21.448Z,6.83
2019-05-14T05:55:21.608Z,6.82
2019-05-14T05:56:21.765Z,6.81
2019-05-14T05:57:21.898Z,6.93
2019-05-14T05:58:22.046Z,6.79
2019-05-14T05:59:23.730Z,6.76
2019-05-14T06:00:22.750Z,6.89
2019-05-14T06:01:38.516Z,6.94
2019-05-14T06:02:23.633Z,7.07
2019-05-14T06:03:22.863Z,7.24
2019-05-14T06:04:22.980Z,7.21
2019-05-14T06:05:23.227Z,7.04
2019-05-14T06:06:23.358Z,7.30
2019-05-14T06:07:24.500Z,7.27
2019-05-14T06:08:23.741Z,7.05
2019-05-14T06:09:23.870Z,6.94
2019-05-14T06:10:24.032Z,6.79
2019-05-14T06:11:24.188Z,6.96
2019-05-14T06:12:24.317Z,6.99
2019-05-14T06:13:24.463Z,6.89
2019-05-14T06:14:24.605Z,6.83
2019-05-14T06:15:24.768Z,6.81
2019-05-14T06:16:24.927Z,6.91
2019-05-14T06:17:25.235Z,7.08
2019-05-14T06:18:25.232Z,7.21
2019-05-14T06:19:25.381Z,7.24
2019-05-14T06:20:25.535Z,7.67
2019-05-14T06:21:25.716Z,8.06
2019-05-14T06:22:27.911Z,8.65
2019-05-14T06:23:28.347Z,8.64
2019-05-14T06:24:28.451Z,8.52
2019-05-14T06:25:26.333Z,8.55
2019-05-14T06:26:28.776Z,8.32
2019-05-14T06:27:28.569Z,8.24
2019-05-14T06:28:32.910Z,8.24
2019-05-14T06:29:29.158Z,8.36
2019-05-14T06:30:28.514Z,8.10
2019-05-14T06:31:29.092Z,8.02
2019-05-14T06:32:29.074Z,7.95
2019-05-14T06:33:28.879Z,8.13
2019-05-14T06:34:29.073Z,8.71
2019-05-14T06:35:29.060Z,8.89
2019-05-14T06:36:29.042Z,8.65
2019-05-14T06:37:30.153Z,9.13
2019-05-14T06:38:29.666Z,9.32
2019-05-14T06:39:28.674Z,9.91
2019-05-14T06:40:28.832Z,10.76
2019-05-14T06:41:29.017Z,11.39
2019-05-14T06:42:29.169Z,11.11
2019-05-14T06:43:29.313Z,11.21
2019-05-14T06:44:29.645Z,11.35
2019-05-14T06:45:30.671Z,11.49
2019-05-14T06:46:30.248Z,12.01
2019-05-14T06:47:30.736Z,12.05
2019-05-14T06:48:34.356Z,12.01
2019-05-14T06:49:31.378Z,11.44
2019-05-14T06:50:31.248Z,11.41
2019-05-14T06:51:30.680Z,11.41
2019-05-14T06:52:31.754Z,11.17
2019-05-14T06:53:31.033Z,11.27
2019-05-14T06:54:31.198Z,11.33
2019-05-14T06:55:31.338Z,11.69
2019-05-14T06:56:31.505Z,11.90
2019-05-14T06:57:31.660Z,12.11
2019-05-14T06:58:31.872Z,12.30
2019-05-14T06:59:32.049Z,12.29
2019-05-14T07:00:32.199Z,12.13
2019-05-14T07:01:32.347Z,12.00
2019-05-14T07:02:32.541Z,12.03
2019-05-14T07:03:32.716Z,12.31
2019-05-14T07:04:33.746Z,12.19
2019-05-14T07:05:33.000Z,12.13
2019-05-14T07:06:33.162Z,12.41
2019-05-14T07:07:33.343Z,12.76
2019-05-14T07:08:33.538Z,13.01
2019-05-14T07:09:33.731Z,13.51
2019-05-14T07:10:33.891Z,13.68
2019-05-14T07:11:34.091Z,13.66
2019-05-14T07:12:34.277Z,13.88
2019-05-14T07:13:34.446Z,13.96
2019-05-14T07:14:34.635Z,14.17
2019-05-14T07:15:38.455Z,13.96
2019-05-14T07:16:35.020Z,14.02
2019-05-14T07:17:38.463Z,13.48
2019-05-14T07:18:46.501Z,13.19
2019-05-14T07:19:38.569Z,13.57
2019-05-14T07:20:35.703Z,14.01
2019-05-14T07:21:38.191Z,14.08
2019-05-14T07:22:36.014Z,13.86
2019-05-14T07:23:38.511Z,13.71
2019-05-14T07:24:39.782Z,13.47
2019-05-14T07:25:39.336Z,13.50
2019-05-14T07:26:38.853Z,13.38
2019-05-14T07:27:39.256Z,13.44
2019-05-14T07:28:42.049Z,13.35
2019-05-14T07:29:38.718Z,13.65
2019-05-14T07:30:39.672Z,13.72
2019-05-14T07:31:39.250Z,13.76
2019-05-14T07:32:39.481Z,13.73
2019-05-14T07:33:39.112Z,14.09
2019-05-14T07:34:38.894Z,14.21
2019-05-14T07:35:39.289Z,13.53
2019-05-14T07:36:38.815Z,12.79
2019-05-14T07:37:39.980Z,12.74
2019-05-14T07:38:39.783Z,12.70
2019-05-14T07:39:38.906Z,12.70
2019-05-14T07:40:39.378Z,12.92
2019-05-14T07:41:39.315Z,12.94
2019-05-14T07:42:39.441Z,13.03
2019-05-14T07:43:39.642Z,13.19
2019-05-14T07:44:39.818Z,13.84
2019-05-14T07:45:39.994Z,14.12
2019-05-14T07:46:40.152Z,14.20
2019-05-14T07:47:41.254Z,14.45
2019-05-14T07:48:40.493Z,14.66
2019-05-14T07:49:40.679Z,14.08
2019-05-14T07:50:40.873Z,13.66
2019-05-14T07:51:41.051Z,13.76
2019-05-14T07:52:45.385Z,14.06
2019-05-14T07:53:42.663Z,13.94
2019-05-14T07:54:42.510Z,14.08
2019-05-14T07:55:41.652Z,14.19
2019-05-14T07:56:41.839Z,14.21
2019-05-14T07:57:42.772Z,14.09
2019-05-14T07:58:42.147Z,14.04
2019-05-14T07:59:42.310Z,14.05
2019-05-14T08:00:42.536Z,13.90
2019-05-14T08:01:42.665Z,14.13
2019-05-14T08:02:42.805Z,14.26
2019-05-14T08:03:42.954Z,14.20
2019-05-14T08:04:43.094Z,14.42
2019-05-14T08:05:43.289Z,14.57
2019-05-14T08:06:43.483Z,14.52
2019-05-14T08:07:43.655Z,14.66
2019-05-14T08:08:43.838Z,14.71
2019-05-14T08:09:44.768Z,14.72
2019-05-14T08:10:44.150Z,14.26
2019-05-14T08:11:44.314Z,14.12
2019-05-14T08:12:44.480Z,13.80
2019-05-14T08:13:44.656Z,14.05
2019-05-14T08:14:57.683Z,14.08
2019-05-14T08:15:48.990Z,14.82
2019-05-14T08:16:45.198Z,15.03
2019-05-14T08:17:45.398Z,15.13
2019-05-14T08:18:45.575Z,14.87
2019-05-14T08:19:45.726Z,15.25
2019-05-14T08:20:48.683Z,15.16
2019-05-14T08:21:48.094Z,15.27
2019-05-14T08:22:48.806Z,15.22
2019-05-14T08:23:48.135Z,15.37
2019-05-14T08:24:48.743Z,15.49
2019-05-14T08:25:48.120Z,15.25
2019-05-14T08:26:48.709Z,14.94
2019-05-14T08:27:48.349Z,14.63
2019-05-14T08:28:49.059Z,14.53
2019-05-14T08:29:48.840Z,14.69
2019-05-14T08:30:49.070Z,15.12
2019-05-14T08:31:48.926Z,15.37
2019-05-14T08:32:49.078Z,15.00
2019-05-14T08:33:49.270Z,14.93
2019-05-14T08:34:48.270Z,14.79
2019-05-14T08:35:48.872Z,14.80
2019-05-14T08:36:49.542Z,14.86
2019-05-14T08:37:49.237Z,14.90
2019-05-14T08:38:50.342Z,15.19
2019-05-14T08:39:50.032Z,15.37
2019-05-14T08:40:49.157Z,15.76
2019-05-14T08:41:58.538Z,15.88
2019-05-14T08:42:51.443Z,16.03
2019-05-14T08:43:49.709Z,16.07
2019-05-14T08:44:51.400Z,16.04
2019-05-14T08:45:51.114Z,16.13
2019-05-14T08:46:50.785Z,16.06
2019-05-14T08:47:50.417Z,16.34
2019-05-14T08:48:50.592Z,16.32
2019-05-14T08:49:51.104Z,15.27
2019-05-14T08:50:50.995Z,15.35
2019-05-14T08:51:51.147Z,15.01
2019-05-14T08:52:51.315Z,14.39
2019-05-14T08:53:51.471Z,14.78
2019-05-14T08:55:05.353Z,14.95
2019-05-14T08:55:54.323Z,15.70
2019-05-14T08:56:51.907Z,15.93
2019-05-14T08:57:53.128Z,15.74
2019-05-14T08:58:52.177Z,14.79
2019-05-14T08:59:52.368Z,15.04
2019-05-14T09:00:52.528Z,15.70
2019-05-14T09:02:01.742Z,15.56
2019-05-14T09:02:54.924Z,14.69
2019-05-14T09:03:53.148Z,13.53
2019-05-14T09:04:54.977Z,13.04
2019-05-14T09:05:55.282Z,12.51
2019-05-14T09:06:54.298Z,12.51
2019-05-14T09:07:53.715Z,13.06
2019-05-14T09:08:53.850Z,14.12
2019-05-14T09:09:55.006Z,15.03
2019-05-14T09:10:54.300Z,15.56
2019-05-14T09:11:54.312Z,15.78
2019-05-14T09:12:54.491Z,15.04
2019-05-14T09:13:54.626Z,14.64
2019-05-14T09:14:54.785Z,14.83
2019-05-14T09:15:54.977Z,14.72
2019-05-14T09:16:55.152Z,15.03
2019-05-14T09:17:55.296Z,15.51
2019-05-14T09:18:55.443Z,15.31
2019-05-14T09:20:05.755Z,15.44
2019-05-14T09:20:58.319Z,15.55
2019-05-14T09:21:58.875Z,15.18
2019-05-14T09:22:59.518Z,15.37
2019-05-14T09:23:58.763Z,15.64
2019-05-14T09:24:59.854Z,15.77
2019-05-14T09:25:58.804Z,15.84
2019-05-14T09:26:59.023Z,15.71
2019-05-14T09:27:58.587Z,15.99
2019-05-14T09:28:58.683Z,16.23
2019-05-14T09:29:59.090Z,16.66
2019-05-14T09:30:59.832Z,15.81
2019-05-14T09:31:59.237Z,14.60
2019-05-14T09:32:59.459Z,13.81
2019-05-14T09:33:58.990Z,13.55
2019-05-14T09:34:58.996Z,14.09
2019-05-14T09:36:13.584Z,13.88
2019-05-14T09:37:00.611Z,13.54
2019-05-14T09:37:59.323Z,13.39
2019-05-14T09:38:59.915Z,13.55
2019-05-14T09:39:59.054Z,14.01
2019-05-14T09:41:10.541Z,14.24
2019-05-14T09:42:01.383Z,14.64
2019-05-14T09:43:00.319Z,14.12
2019-05-14T09:43:59.602Z,13.98
2019-05-14T09:44:59.788Z,14.35
2019-05-14T09:45:59.950Z,14.52
2019-05-14T09:47:00.175Z,14.04
2019-05-14T09:48:00.340Z,13.79
2019-05-14T09:49:01.295Z,14.05
2019-05-14T09:50:15.123Z,14.38
2019-05-14T09:51:02.845Z,14.90
2019-05-14T09:52:00.975Z,15.22
2019-05-14T09:53:01.172Z,15.46
2019-05-14T09:54:01.430Z,15.12
2019-05-14T09:55:01.591Z,14.39
2019-05-14T09:56:01.770Z,14.11
2019-05-14T09:57:02.798Z,14.29
2019-05-14T09:58:02.125Z,14.36
2019-05-14T09:59:02.321Z,14.72
2019-05-14T10:00:02.382Z,14.83
2019-05-14T10:01:02.570Z,15.01
2019-05-14T10:02:02.747Z,15.37
2019-05-14T10:03:02.895Z,15.30
2019-05-14T10:04:03.107Z,15.37
2019-05-14T10:05:03.297Z,15.33
2019-05-14T10:06:04.327Z,15.28
2019-05-14T10:07:03.747Z,15.38
2019-05-14T10:08:03.931Z,15.53
2019-05-14T10:09:04.064Z,15.52
2019-05-14T10:10:04.256Z,14.85
2019-05-14T10:11:04.434Z,14.29
2019-05-14T10:12:04.819Z,13.76
2019-05-14T10:13:04.774Z,13.48
2019-05-14T10:14:07.818Z,14.17
2019-05-14T10:15:05.117Z,14.82
2019-05-14T10:16:06.282Z,15.43
2019-05-14T10:17:05.413Z,15.73
2019-05-14T10:18:11.061Z,15.01
2019-05-14T10:19:06.722Z,14.75
2019-05-14T10:20:08.572Z,15.28
2019-05-14T10:21:08.372Z,14.61
2019-05-14T10:22:08.131Z,14.20
2019-05-14T10:23:06.386Z,13.93
2019-05-14T10:24:09.118Z,13.99
2019-05-14T10:25:08.900Z,14.59
2019-05-14T10:26:09.133Z,14.49
2019-05-14T10:27:08.903Z,14.52
2019-05-14T10:28:08.673Z,15.11
2019-05-14T10:29:08.710Z,15.41
2019-05-14T10:30:10.323Z,15.66
2019-05-14T10:31:09.817Z,15.66
2019-05-14T10:32:09.025Z,16.07
2019-05-14T10:33:14.125Z,15.92
2019-05-14T10:34:10.202Z,15.19
2019-05-14T10:35:08.570Z,14.71
2019-05-14T10:36:09.496Z,14.95
2019-05-14T10:37:08.859Z,15.09
2019-05-14T10:38:09.849Z,14.66
2019-05-14T10:39:09.499Z,14.41
2019-05-14T10:40:10.668Z,14.56
2019-05-14T10:41:10.365Z,14.83
2019-05-14T10:42:09.521Z,14.86
2019-05-14T10:43:09.663Z,14.87
2019-05-14T10:44:09.814Z,15.35
2019-05-14T10:45:12.722Z,15.53
2019-05-14T10:46:11.104Z,15.77
2019-05-14T10:47:10.260Z,15.48
2019-05-14T10:48:10.432Z,14.63
2019-05-14T10:49:17.407Z,13.76
2019-05-14T10:50:13.948Z,13.29
2019-05-14T10:51:12.100Z,13.76
2019-05-14T10:52:11.325Z,14.34
2019-05-14T10:53:11.481Z,14.63
2019-05-14T10:54:24.305Z,14.75
2019-05-14T10:55:13.814Z,14.91
2019-05-14T10:56:11.917Z,14.38
2019-05-14T10:57:12.082Z,13.93
2019-05-14T10:58:12.250Z,13.39
2019-05-14T10:59:12.421Z,13.19
2019-05-14T11:00:12.588Z,13.17
2019-05-14T11:01:12.755Z,13.63
2019-05-14T11:02:13.821Z,14.19
2019-05-14T11:03:13.845Z,14.29
2019-05-14T11:04:13.281Z,14.29
2019-05-14T11:05:13.435Z,14.21
2019-05-14T11:06:13.623Z,14.67
2019-05-14T11:07:13.802Z,14.41
2019-05-14T11:08:14.835Z,14.31
2019-05-14T11:09:14.101Z,14.63
2019-05-14T11:10:14.357Z,14.46
2019-05-14T11:11:14.426Z,14.45
2019-05-14T11:12:14.576Z,14.71
2019-05-14T11:13:14.752Z,15.15
2019-05-14T11:14:14.893Z,15.73
2019-05-14T11:15:15.054Z,15.80
2019-05-14T11:16:15.825Z,16.08
2019-05-14T11:17:15.356Z,16.07
2019-05-14T11:18:15.541Z,15.96
2019-05-14T11:19:15.716Z,15.73
2019-05-14T11:20:15.890Z,15.59
2019-05-14T11:21:24.837Z,15.91
2019-05-14T11:22:18.573Z,15.89
2019-05-14T11:23:18.444Z,15.77
2019-05-14T11:24:18.885Z,15.89
2019-05-14T11:25:19.622Z,15.73
2019-05-14T11:26:18.537Z,15.76
2019-05-14T11:27:18.766Z,15.51
2019-05-14T11:28:19.145Z,15.41
2019-05-14T11:29:39.571Z,15.60
2019-05-14T11:30:19.332Z,15.37
2019-05-14T11:31:19.427Z,15.12
2019-05-14T11:32:19.134Z,15.12
2019-05-14T11:33:18.921Z,15.46
2019-05-14T11:34:19.232Z,15.56
2019-05-14T11:35:19.844Z,15.68
2019-05-14T11:36:18.996Z,15.15
2019-05-14T11:37:20.824Z,15.64
2019-05-14T11:38:32.153Z,15.52
2019-05-14T11:39:21.848Z,15.11
2019-05-14T11:40:19.567Z,14.72
2019-05-14T11:41:19.721Z,14.45
2019-05-14T11:42:20.092Z,14.08
2019-05-14T11:43:21.013Z,13.94
2019-05-14T11:44:20.134Z,14.04
2019-05-14T11:45:20.288Z,14.38
2019-05-14T11:46:33.045Z,14.59
2019-05-14T11:47:22.639Z,14.83
2019-05-14T11:48:20.904Z,15.01
2019-05-14T11:49:21.061Z,15.00
2019-05-14T11:50:21.254Z,14.98
2019-05-14T11:51:53.095Z,15.37
2019-05-14T11:52:23.647Z,15.22
2019-05-14T11:53:21.893Z,15.18
2019-05-14T11:54:23.144Z,14.87
2019-05-14T11:55:23.244Z,15.33
2019-05-14T11:56:22.369Z,15.41
2019-05-14T11:57:22.564Z,15.66
2019-05-14T11:58:22.703Z,15.85
2019-05-14T11:59:22.845Z,16.04
2019-05-14T12:00:25.895Z,15.89
2019-05-14T12:01:23.246Z,15.70
2019-05-14T12:02:23.412Z,15.88
2019-05-14T12:03:23.568Z,15.96
2019-05-14T12:04:23.736Z,15.70
2019-05-14T12:05:23.896Z,15.53
2019-05-14T12:06:24.057Z,15.80
2019-05-14T12:07:24.234Z,15.71
2019-05-14T12:08:25.342Z,15.96
2019-05-14T12:09:24.615Z,16.03
2019-05-14T12:10:24.773Z,15.73
2019-05-14T12:11:24.911Z,15.66
2019-05-14T12:12:25.054Z,15.59
2019-05-14T12:13:29.862Z,15.64
2019-05-14T12:14:26.491Z,15.60
2019-05-14T12:15:25.618Z,15.62
2019-05-14T12:16:28.901Z,15.89
2019-05-14T12:17:26.038Z,15.81
2019-05-14T12:18:26.363Z,16.16
2019-05-14T12:19:28.419Z,16.65
2019-05-14T12:20:29.671Z,16.77
2019-05-14T12:21:28.884Z,17.05
2019-05-14T12:22:28.587Z,16.77
2019-05-14T12:23:29.852Z,16.57
2019-05-14T12:24:29.206Z,16.51
2019-05-14T12:25:29.382Z,16.75
2019-05-14T12:26:28.804Z,16.91
2019-05-14T12:27:27.926Z,16.14
2019-05-14T12:28:29.127Z,15.25
2019-05-14T12:29:29.477Z,14.78
2019-05-14T12:30:28.829Z,14.79
2019-05-14T12:31:29.533Z,14.79
2019-05-14T12:32:29.521Z,14.35
2019-05-14T12:33:31.316Z,14.57
2019-05-14T12:34:30.032Z,14.61
2019-05-14T12:35:29.489Z,14.97
2019-05-14T12:36:29.480Z,15.30
2019-05-14T12:37:29.519Z,15.81
2019-05-14T12:38:29.830Z,16.06
2019-05-14T12:39:29.905Z,16.11
2019-05-14T12:40:30.063Z,16.06
2019-05-14T12:41:30.243Z,16.16
2019-05-14T12:42:30.424Z,16.51
2019-05-14T12:43:31.341Z,16.81
2019-05-14T12:44:30.742Z,16.47
2019-05-14T12:45:30.937Z,15.91
2019-05-14T12:46:31.104Z,16.03
2019-05-14T12:47:31.846Z,15.96
2019-05-14T12:48:31.492Z,15.51
2019-05-14T12:49:31.859Z,15.27
2019-05-14T12:50:31.895Z,14.83
2019-05-14T12:51:32.065Z,14.39
2019-05-14T12:52:32.212Z,14.60
2019-05-14T12:53:32.380Z,14.98
2019-05-14T12:54:32.570Z,15.37
2019-05-14T12:55:32.752Z,15.81
2019-05-14T12:56:32.908Z,15.96
2019-05-14T12:57:33.075Z,16.45
2019-05-14T12:58:33.239Z,16.73
2019-05-14T12:59:33.395Z,16.69
2019-05-14T13:00:33.580Z,16.67
2019-05-14T13:01:33.720Z,16.55
2019-05-14T13:02:33.893Z,16.42
2019-05-14T13:03:34.852Z,16.57
2019-05-14T13:04:34.263Z,16.67
2019-05-14T13:05:35.354Z,16.11
2019-05-14T13:06:34.631Z,15.88
2019-05-14T13:07:34.786Z,15.78